Nemiscau, Canada
Current Conditions -  °F | °C
As of 5:00 AM on Saturday 25 Oct 2014 (Local Time) from CYNM Reporting Station
Overcast Overcast  
Wind Chill: 36°   Ceiling: 8500
Heat Index: 41°   Visibility: 9mi
Dew Point: 39°   Wind: 8mph
Humidity: 93%   Direction: 170°S
Pressure: 29.56"   Gusts: NA
Location:  51.32°N, 76.9°W
Report Text: CYNM 250900Z AUTO 17007KT 9SM BKN085 OVC120 05/04 A2956 RMK ICG MISG SLP019
Loading
Personal Weather Stations






























Interactive Weather Map
Tropical Storm Tracking
New forecast layout! Learn more

10-Day Weather Forecast

Advertisements
Track Severe Weather on mobile